createdAt,value
2022-10-22T00:00:38.413Z,98132.09
2022-10-22T00:01:41.529Z,98131.22
2022-10-22T00:02:45.280Z,98134.56
2022-10-22T00:03:48.298Z,98131.81
2022-10-22T00:04:51.994Z,98131.09
2022-10-22T00:05:54.781Z,98132.25
2022-10-22T00:06:57.620Z,98136.72
2022-10-22T00:08:00.477Z,98133.25
2022-10-22T00:09:03.713Z,98138.75
2022-10-22T00:10:08.103Z,98139.78
2022-10-22T00:11:14.770Z,98142.25
2022-10-22T00:12:17.862Z,98140.81
2022-10-22T00:13:21.556Z,98148.19
2022-10-22T00:14:24.366Z,98150.22
2022-10-22T00:15:27.229Z,98141.97
2022-10-22T00:16:30.063Z,98148.06
2022-10-22T00:17:33.195Z,98145.16
2022-10-22T00:18:36.574Z,98145.31
2022-10-22T00:19:40.093Z,98141.13
2022-10-22T00:20:43.692Z,98145.88
2022-10-22T00:21:46.483Z,98138.38
2022-10-22T00:23:52.924Z,98141.84
2022-10-22T00:24:55.837Z,98149.78
2022-10-22T00:25:58.783Z,98144.16
2022-10-22T00:27:02.449Z,98142.00
2022-10-22T00:28:05.558Z,98142.88
2022-10-22T00:29:08.448Z,98137.97
2022-10-22T00:30:12.171Z,98133.44
2022-10-22T00:31:15.944Z,98132.88
2022-10-22T00:32:18.834Z,98129.97
2022-10-22T00:33:21.795Z,98122.44
2022-10-22T00:34:25.515Z,98120.72
2022-10-22T00:35:28.345Z,98117.84
2022-10-22T00:36:31.194Z,98119.28
2022-10-22T00:37:34.019Z,98125.63
2022-10-22T00:38:36.914Z,98121.59
2022-10-22T00:39:39.832Z,98128.22
2022-10-22T00:40:42.811Z,98119.41
2022-10-22T00:41:47.966Z,98121.56
2022-10-22T00:42:50.939Z,98119.09
2022-10-22T00:43:56.830Z,98113.78
2022-10-22T00:45:14.070Z,98113.06
2022-10-22T00:46:17.342Z,98118.25
2022-10-22T00:47:21.364Z,98113.91
2022-10-22T00:48:28.538Z,98105.69
2022-10-22T00:49:31.535Z,98103.66
2022-10-22T00:50:49.144Z,98105.78
2022-10-22T00:51:51.892Z,98101.47
2022-10-22T00:52:55.747Z,98102.31
2022-10-22T00:54:04.930Z,98107.28
2022-10-22T00:55:08.095Z,98113.78
2022-10-22T00:56:12.033Z,98109.44
2022-10-22T00:57:16.954Z,98109.44
2022-10-22T00:58:26.376Z,98116.84
2022-10-22T00:59:30.057Z,98113.94
2022-10-22T01:00:33.437Z,98115.69
2022-10-22T01:01:36.414Z,98116.13
2022-10-22T01:02:39.630Z,98114.69
2022-10-22T01:03:42.920Z,98120.91
2022-10-22T01:04:49.371Z,98115.41
2022-10-22T01:05:58.024Z,98123.50
2022-10-22T01:07:01.509Z,98119.00
2022-10-22T01:08:04.733Z,98120.47
2022-10-22T01:09:13.752Z,98116.25
2022-10-22T01:10:26.035Z,98120.16
2022-10-22T01:12:04.444Z,98124.78
2022-10-22T01:13:34.117Z,98121.16
2022-10-22T01:14:44.839Z,98125.81
2022-10-22T01:16:04.529Z,98121.62
2022-10-22T01:17:14.153Z,98125.09
2022-10-22T01:18:37.462Z,98130.28
2022-10-22T01:19:49.267Z,98118.87
2022-10-22T01:21:01.003Z,98125.09
2022-10-22T01:22:09.489Z,98114.53
2022-10-22T01:23:31.207Z,98114.97
2022-10-22T01:25:03.562Z,98111.94
2022-10-22T01:26:25.712Z,98107.19
2022-10-22T01:27:43.373Z,98106.28
2022-10-22T01:29:07.420Z,98106.75
2022-10-22T01:30:14.947Z,98102.81
2022-10-22T01:31:20.618Z,98110.34
2022-10-22T01:32:26.776Z,98113.81
2022-10-22T01:33:31.466Z,98116.41
2022-10-22T01:34:35.449Z,98118.84
2022-10-22T01:35:42.220Z,98111.81
2022-10-22T01:36:47.178Z,98120.16
2022-10-22T01:37:56.135Z,98114.53
2022-10-22T01:39:02.186Z,98109.06
2022-10-22T01:40:06.621Z,98105.00
2022-10-22T01:41:11.308Z,98110.63
2022-10-22T01:42:15.134Z,98101.56
2022-10-22T01:43:18.143Z,98102.81
2022-10-22T01:44:30.050Z,98102.69
2022-10-22T01:45:40.826Z,98103.41
2022-10-22T01:46:43.778Z,98099.38
2022-10-22T01:48:07.900Z,98098.66
2022-10-22T01:49:24.614Z,98098.66
2022-10-22T01:50:33.337Z,98087.25
2022-10-22T01:51:50.460Z,98091.84
2022-10-22T01:53:11.752Z,98084.50
2022-10-22T01:54:42.140Z,98092.56
2022-10-22T01:55:50.979Z,98093.75
2022-10-22T01:57:09.773Z,98092.16
2022-10-22T01:58:22.894Z,98093.47
2022-10-22T01:59:52.025Z,98087.97
2022-10-22T02:01:11.349Z,98093.88
2022-10-22T02:02:40.182Z,98097.63
2022-10-22T02:03:55.580Z,98088.09
2022-10-22T02:05:24.185Z,98095.44
2022-10-22T02:06:29.174Z,98098.78
2022-10-22T02:07:38.230Z,98097.22
2022-10-22T02:08:42.239Z,98098.34
2022-10-22T02:09:45.968Z,98104.44
2022-10-22T02:10:51.374Z,98093.28
2022-10-22T02:11:55.997Z,98097.94
2022-10-22T02:13:01.456Z,98093.03
2022-10-22T02:14:07.815Z,98090.28
2022-10-22T02:15:13.815Z,98092.16
2022-10-22T02:16:23.102Z,98098.22
2022-10-22T02:17:29.508Z,98106.28
2022-10-22T02:18:36.424Z,98099.94
2022-10-22T02:19:48.857Z,98110.78
2022-10-22T02:20:53.338Z,98113.38
2022-10-22T02:21:56.253Z,98113.25
2022-10-22T02:23:00.543Z,98115.84
2022-10-22T02:24:03.536Z,98112.22
2022-10-22T02:25:07.494Z,98109.47
2022-10-22T02:26:36.020Z,98106.31
2022-10-22T02:27:48.190Z,98107.75
2022-10-22T02:29:00.785Z,98105.28
2022-10-22T02:30:08.338Z,98109.91
2022-10-22T02:31:17.213Z,98108.03
2022-10-22T02:32:26.735Z,98107.72
2022-10-22T02:33:34.410Z,98103.25
2022-10-22T02:34:37.368Z,98100.22
2022-10-22T02:35:42.549Z,98095.87
2022-10-22T02:36:49.709Z,98091.69
2022-10-22T02:37:57.633Z,98092.56
2022-10-22T02:39:01.173Z,98098.34
2022-10-22T02:40:04.381Z,98084.47
2022-10-22T02:41:07.353Z,98101.34
2022-10-22T02:42:12.628Z,98097.47
2022-10-22T02:43:15.466Z,98090.66
2022-10-22T02:44:21.827Z,98103.50
2022-10-22T02:45:28.236Z,98092.94
2022-10-22T02:46:31.002Z,98103.78
2022-10-22T02:47:33.911Z,98107.66
2022-10-22T02:48:37.470Z,98112.41
2022-10-22T02:49:40.292Z,98112.69
2022-10-22T02:50:43.242Z,98120.19
2022-10-22T02:51:46.196Z,98121.91
2022-10-22T02:52:49.220Z,98117.25
2022-10-22T02:53:52.488Z,98114.06
2022-10-22T02:54:55.445Z,98113.03
2022-10-22T02:55:58.770Z,98113.03
2022-10-22T02:57:01.829Z,98110.16
2022-10-22T02:58:08.737Z,98118.06
2022-10-22T02:59:11.824Z,98118.00
2022-10-22T03:00:15.183Z,98122.88
2022-10-22T03:01:18.040Z,98117.53
2022-10-22T03:02:21.097Z,98119.22
2022-10-22T03:03:24.155Z,98121.66
2022-10-22T03:04:27.102Z,98124.06
2022-10-22T03:05:29.849Z,98123.91
2022-10-22T03:06:32.774Z,98116.09
2022-10-22T03:07:35.567Z,98119.81
2022-10-22T03:08:38.454Z,98118.22
2022-10-22T03:09:41.312Z,98119.50
2022-10-22T03:10:44.337Z,98122.06
2022-10-22T03:11:47.537Z,98117.56
2022-10-22T03:12:50.595Z,98114.28
2022-10-22T03:13:53.644Z,98114.69
2022-10-22T03:14:56.541Z,98103.41
2022-10-22T03:15:59.339Z,98103.84
2022-10-22T03:17:02.708Z,98103.09
2022-10-22T03:18:05.624Z,98102.94
2022-10-22T03:19:08.849Z,98102.94
2022-10-22T03:20:11.636Z,98100.91
2022-10-22T03:21:28.365Z,98099.81
2022-10-22T03:22:34.140Z,98101.00
2022-10-22T03:23:39.145Z,98106.06
2022-10-22T03:24:46.383Z,98103.78
2022-10-22T03:25:50.205Z,98099.59
2022-10-22T03:26:53.351Z,98106.34
2022-10-22T03:28:00.791Z,98090.13
2022-10-22T03:29:03.814Z,98106.72
2022-10-22T03:30:07.919Z,98093.75
2022-10-22T03:31:10.760Z,98089.16
2022-10-22T03:32:14.387Z,98087.03
2022-10-22T03:33:17.142Z,98075.25
2022-10-22T03:34:20.013Z,98069.97
2022-10-22T03:35:22.938Z,98063.66
2022-10-22T03:36:26.224Z,98065.16
2022-10-22T03:37:29.093Z,98058.78
2022-10-22T03:38:33.055Z,98050.16
2022-10-22T03:39:37.529Z,98050.87
2022-10-22T03:40:41.974Z,98058.22
2022-10-22T03:41:45.380Z,98047.28
2022-10-22T03:42:48.380Z,98044.28
2022-10-22T03:43:53.307Z,98050.47
2022-10-22T03:44:56.173Z,98042.13
2022-10-22T03:45:58.934Z,98045.00
2022-10-22T03:47:02.800Z,98042.41
2022-10-22T03:48:06.180Z,98039.81
2022-10-22T03:49:09.213Z,98040.53
2022-10-22T03:50:12.083Z,98044.72
2022-10-22T03:51:15.224Z,98036.81
2022-10-22T03:52:18.378Z,98042.13
2022-10-22T03:54:28.839Z,98051.38
2022-10-22T03:55:31.617Z,98057.59
2022-10-22T03:56:34.494Z,98056.87
2022-10-22T03:57:37.568Z,98059.75
2022-10-22T03:58:41.659Z,98067.69
2022-10-22T03:59:46.616Z,98074.47
2022-10-22T04:00:49.437Z,98070.84
2022-10-22T04:01:52.214Z,98086.44
2022-10-22T04:02:55.022Z,98085.53
2022-10-22T04:03:58.853Z,98086.00
2022-10-22T04:05:01.853Z,98094.06
2022-10-22T04:06:09.977Z,98094.06
2022-10-22T04:07:12.985Z,98083.53
2022-10-22T04:08:15.958Z,98082.66
2022-10-22T04:09:18.843Z,98079.94
2022-10-22T04:10:21.736Z,98081.81
2022-10-22T04:11:24.718Z,98085.25
2022-10-22T04:12:27.726Z,98084.81
2022-10-22T04:13:30.648Z,98074.84
2022-10-22T04:14:33.882Z,98079.44
2022-10-22T04:15:36.794Z,98073.37
2022-10-22T04:16:41.403Z,98072.53
2022-10-22T04:17:44.445Z,98073.50
2022-10-22T04:18:48.923Z,98072.47
2022-10-22T04:19:51.769Z,98084.00
2022-10-22T04:20:54.620Z,98082.41
2022-10-22T04:22:00.987Z,98093.78
2022-10-22T04:23:03.807Z,98085.84
2022-10-22T04:24:10.266Z,98090.44
2022-10-22T04:25:13.084Z,98087.56
2022-10-22T04:26:17.057Z,98089.31
2022-10-22T04:27:19.942Z,98094.19
2022-10-22T04:28:23.837Z,98096.88
2022-10-22T04:29:26.693Z,98092.72
2022-10-22T04:30:29.717Z,98091.38
2022-10-22T04:31:32.541Z,98087.28
2022-10-22T04:32:35.470Z,98082.78
2022-10-22T04:33:38.482Z,98078.44
2022-10-22T04:34:41.412Z,98079.00
2022-10-22T04:35:44.264Z,98089.22
2022-10-22T04:36:47.148Z,98091.22
2022-10-22T04:37:49.961Z,98087.91
2022-10-22T04:38:56.411Z,98086.06
2022-10-22T04:39:59.277Z,98084.22
2022-10-22T04:41:16.907Z,98071.44
2022-10-22T04:42:19.782Z,98076.44
2022-10-22T04:43:22.517Z,98077.41
2022-10-22T04:44:29.267Z,98078.53
2022-10-22T04:45:33.873Z,98073.06
2022-10-22T04:46:37.286Z,98079.97
2022-10-22T04:47:40.459Z,98074.66
2022-10-22T04:48:45.259Z,98074.66
2022-10-22T04:49:48.089Z,98076.69
2022-10-22T04:50:50.959Z,98063.00
2022-10-22T04:51:57.429Z,98064.25
2022-10-22T04:53:00.227Z,98060.81
2022-10-22T04:54:06.277Z,98054.47
2022-10-22T04:55:10.436Z,98043.41
2022-10-22T04:56:22.183Z,98057.97
2022-10-22T04:57:24.945Z,98055.25
2022-10-22T04:58:27.779Z,98046.88
2022-10-22T04:59:30.603Z,98065.97
2022-10-22T05:00:33.525Z,98052.59
2022-10-22T05:01:42.654Z,98053.31
2022-10-22T05:02:50.150Z,98055.34
2022-10-22T05:03:56.327Z,98055.88
2022-10-22T05:04:59.027Z,98053.56
2022-10-22T05:06:02.645Z,98057.75
2022-10-22T05:07:05.420Z,98056.31
2022-10-22T05:08:08.200Z,98063.06
2022-10-22T05:09:16.933Z,98063.94
2022-10-22T05:10:19.950Z,98063.81
2022-10-22T05:11:29.736Z,98062.34
2022-10-22T05:12:32.754Z,98058.47
2022-10-22T05:13:35.652Z,98058.22
2022-10-22T05:14:43.983Z,98061.09
2022-10-22T05:15:48.748Z,98061.09
2022-10-22T05:16:52.608Z,98060.53
2022-10-22T05:17:55.464Z,98064.56
2022-10-22T05:19:01.443Z,98054.31
2022-10-22T05:20:05.919Z,98059.66
2022-10-22T05:21:15.437Z,98060.22
2022-10-22T05:22:18.251Z,98066.28
2022-10-22T05:23:21.113Z,98070.47
2022-10-22T05:24:24.773Z,98073.75
2022-10-22T05:25:27.656Z,98067.97
2022-10-22T05:26:30.576Z,98066.13
2022-10-22T05:27:33.302Z,98076.19
2022-10-22T05:28:36.256Z,98074.75
2022-10-22T05:29:39.102Z,98076.19
2022-10-22T05:30:41.984Z,98073.03
2022-10-22T05:31:44.821Z,98076.19
2022-10-22T05:32:47.619Z,98075.84
2022-10-22T05:33:50.587Z,98082.63
2022-10-22T05:34:53.341Z,98079.47
2022-10-22T05:35:56.777Z,98078.59
2022-10-22T05:37:02.415Z,98082.44
2022-10-22T05:38:05.220Z,98073.37
2022-10-22T05:39:08.278Z,98063.13
2022-10-22T05:40:19.289Z,98063.13
2022-10-22T05:41:30.063Z,98065.31
2022-10-22T05:42:33.609Z,98071.34
2022-10-22T05:43:37.616Z,98075.97
2022-10-22T05:44:41.114Z,98068.88
2022-10-22T05:45:43.958Z,98074.19
2022-10-22T05:46:46.674Z,98076.22
2022-10-22T05:47:49.459Z,98081.13
2022-10-22T05:48:54.878Z,98081.84
2022-10-22T05:49:57.786Z,98080.22
2022-10-22T05:51:05.774Z,98077.34
2022-10-22T05:52:08.645Z,98074.03
2022-10-22T05:53:12.655Z,98070.16
2022-10-22T05:54:20.936Z,98086.59
2022-10-22T05:55:24.140Z,98083.69
2022-10-22T05:56:28.667Z,98076.75
2022-10-22T05:57:31.536Z,98086.25
2022-10-22T05:58:35.452Z,98080.78
2022-10-22T05:59:38.228Z,98080.94
2022-10-22T06:00:41.649Z,98091.34
2022-10-22T06:01:44.959Z,98090.75
2022-10-22T06:02:51.825Z,98081.44
2022-10-22T06:03:57.201Z,98093.66
2022-10-22T06:05:00.507Z,98088.03
2022-10-22T06:06:27.917Z,98090.03
2022-10-22T06:07:31.218Z,98097.53
2022-10-22T06:08:37.442Z,98096.97
2022-10-22T06:09:40.343Z,98092.22
2022-10-22T06:10:44.684Z,98101.47
2022-10-22T06:11:48.465Z,98105.81
2022-10-22T06:12:51.283Z,98110.87
2022-10-22T06:13:54.095Z,98110.87
2022-10-22T06:15:00.418Z,98114.91
2022-10-22T06:16:03.186Z,98124.56
2022-10-22T06:17:06.581Z,98120.00
2022-10-22T06:18:09.466Z,98119.56
2022-10-22T06:19:14.574Z,98119.88
2022-10-22T06:20:17.821Z,98107.09
2022-10-22T06:21:20.675Z,98104.09
2022-10-22T06:22:23.600Z,98106.97
2022-10-22T06:23:26.487Z,98108.56
2022-10-22T06:24:29.490Z,98102.69
2022-10-22T06:25:32.826Z,98105.72
2022-10-22T06:26:35.738Z,98099.28
2022-10-22T06:27:40.384Z,98099.00
2022-10-22T06:28:43.211Z,98103.50
2022-10-22T06:29:46.044Z,98102.94
2022-10-22T06:30:48.881Z,98103.22
2022-10-22T06:31:55.495Z,98104.09
2022-10-22T06:32:58.510Z,98107.16
2022-10-22T06:34:01.481Z,98106.00
2022-10-22T06:35:04.574Z,98108.91
2022-10-22T06:36:09.294Z,98108.47
2022-10-22T06:37:14.040Z,98104.00
2022-10-22T06:38:17.073Z,98108.34
2022-10-22T06:39:23.307Z,98107.38
2022-10-22T06:40:26.205Z,98111.13
2022-10-22T06:41:29.774Z,98119.81
2022-10-22T06:42:36.282Z,98112.59
2022-10-22T06:43:39.868Z,98113.06
2022-10-22T06:44:42.610Z,98115.06
2022-10-22T06:45:45.520Z,98125.94
2022-10-22T06:46:52.751Z,98135.91
2022-10-22T06:47:56.076Z,98131.56
2022-10-22T06:49:02.789Z,98137.78
2022-10-22T06:50:06.172Z,98135.63
2022-10-22T06:51:12.358Z,98134.75
2022-10-22T06:52:15.316Z,98131.16
2022-10-22T06:53:18.147Z,98127.53
2022-10-22T06:54:22.378Z,98123.19
2022-10-22T06:55:25.190Z,98127.81
2022-10-22T06:56:29.682Z,98129.72
2022-10-22T06:57:32.512Z,98132.31
2022-10-22T06:58:36.089Z,98121.75
2022-10-22T06:59:39.080Z,98111.88
2022-10-22T07:00:42.047Z,98113.78
2022-10-22T07:01:44.868Z,98105.34
2022-10-22T07:02:56.492Z,98110.09
2022-10-22T07:04:03.588Z,98109.75
2022-10-22T07:05:10.432Z,98113.78
2022-10-22T07:06:14.951Z,98116.66
2022-10-22T07:07:17.814Z,98115.62
2022-10-22T07:08:20.706Z,98120.69
2022-10-22T07:09:23.776Z,98129.91
2022-10-22T07:10:29.921Z,98121.91
2022-10-22T07:11:41.232Z,98123.63
2022-10-22T07:12:44.279Z,98122.47
2022-10-22T07:13:48.437Z,98106.81
2022-10-22T07:14:51.355Z,98109.00
2022-10-22T07:15:55.380Z,98111.88
2022-10-22T07:16:58.457Z,98111.28
2022-10-22T07:18:01.714Z,98111.28
2022-10-22T07:19:05.839Z,98104.47
2022-10-22T07:20:09.266Z,98096.97
2022-10-22T07:21:13.098Z,98101.72
2022-10-22T07:22:15.895Z,98102.47
2022-10-22T07:23:18.747Z,98103.91
2022-10-22T07:24:21.670Z,98105.34
2022-10-22T07:25:24.598Z,98103.31
2022-10-22T07:26:31.280Z,98114.44
2022-10-22T07:27:34.147Z,98108.34
2022-10-22T07:28:40.214Z,98116.59
2022-10-22T07:29:43.320Z,98109.78
2022-10-22T07:30:46.908Z,98110.63
2022-10-22T07:31:53.306Z,98106.84
2022-10-22T07:32:56.176Z,98109.16
2022-10-22T07:33:59.076Z,98117.53
2022-10-22T07:35:01.847Z,98108.81
2022-10-22T07:36:08.527Z,98106.91
2022-10-22T07:37:11.453Z,98117.47
2022-10-22T07:38:14.503Z,98120.59
2022-10-22T07:39:17.318Z,98124.94
2022-10-22T07:40:20.414Z,98119.69
2022-10-22T07:41:23.962Z,98117.19
2022-10-22T07:42:26.827Z,98118.09
2022-10-22T07:43:29.672Z,98109.34
2022-10-22T07:44:32.468Z,98107.56
2022-10-22T07:45:35.217Z,98113.47
2022-10-22T07:46:38.092Z,98108.50
2022-10-22T07:47:41.219Z,98115.09
2022-10-22T07:48:44.264Z,98114.75
2022-10-22T07:49:47.076Z,98123.41
2022-10-22T07:50:51.462Z,98118.87
2022-10-22T07:51:54.496Z,98114.91
2022-10-22T07:52:58.281Z,98112.53
2022-10-22T07:54:01.486Z,98118.28
2022-10-22T07:55:05.104Z,98122.62
2022-10-22T07:56:08.872Z,98121.41
2022-10-22T07:57:12.537Z,98121.66
2022-10-22T07:58:15.617Z,98128.88
2022-10-22T07:59:18.538Z,98125.66
2022-10-22T08:00:24.479Z,98121.22
2022-10-22T08:01:28.352Z,98131.91
2022-10-22T08:02:31.145Z,98121.97
2022-10-22T08:03:34.102Z,98124.25
2022-10-22T08:04:36.895Z,98125.78
2022-10-22T08:05:40.098Z,98121.59
2022-10-22T08:06:45.808Z,98123.53
2022-10-22T08:07:50.161Z,98122.69
2022-10-22T08:08:53.034Z,98122.81
2022-10-22T08:09:56.028Z,98122.22
2022-10-22T08:11:00.758Z,98124.16
2022-10-22T08:12:03.803Z,98123.91
2022-10-22T08:13:07.555Z,98130.38
2022-10-22T08:14:10.428Z,98127.97
2022-10-22T08:15:13.220Z,98131.06
2022-10-22T08:16:16.024Z,98129.38
2022-10-22T08:17:18.837Z,98133.94
2022-10-22T08:18:21.739Z,98128.97
2022-10-22T08:19:24.842Z,98122.69
2022-10-22T08:20:27.640Z,98129.41
2022-10-22T08:21:30.565Z,98120.41
2022-10-22T08:22:33.424Z,98120.97
2022-10-22T08:23:36.635Z,98123.56
2022-10-22T08:24:39.450Z,98112.97
2022-10-22T08:25:42.305Z,98123.12
2022-10-22T08:26:45.322Z,98125.63
2022-10-22T08:27:48.298Z,98127.53
2022-10-22T08:28:51.168Z,98129.53
2022-10-22T08:29:54.151Z,98123.31
2022-10-22T08:30:57.111Z,98129.53
2022-10-22T08:31:59.950Z,98132.44
2022-10-22T08:33:02.793Z,98134.59
2022-10-22T08:34:09.377Z,98122.19
2022-10-22T08:35:14.161Z,98123.75
2022-10-22T08:36:19.885Z,98128.34
2022-10-22T08:37:22.974Z,98131.72
2022-10-22T08:38:25.966Z,98137.97
2022-10-22T08:39:28.981Z,98139.41
2022-10-22T08:40:40.359Z,98137.34
2022-10-22T08:42:14.496Z,98138.47
2022-10-22T08:43:46.762Z,98135.19
2022-10-22T08:44:55.571Z,98134.59
2022-10-22T08:46:32.022Z,98137.97
2022-10-22T08:47:40.497Z,98137.25
2022-10-22T08:48:45.583Z,98135.81
2022-10-22T08:49:48.532Z,98141.22
2022-10-22T08:50:54.943Z,98142.53
2022-10-22T08:51:59.631Z,98136.78
2022-10-22T08:53:08.305Z,98135.94
2022-10-22T08:54:31.103Z,98138.00
2022-10-22T08:55:37.278Z,98139.94
2022-10-22T08:56:44.658Z,98139.59
2022-10-22T08:58:03.720Z,98148.87
2022-10-22T08:59:10.866Z,98142.41
2022-10-22T09:00:29.077Z,98139.66
2022-10-22T09:01:42.463Z,98124.31
2022-10-22T09:02:51.321Z,98117.13
2022-10-22T09:04:01.782Z,98126.13
2022-10-22T09:05:28.697Z,98140.03
2022-10-22T09:06:41.433Z,98140.75
2022-10-22T09:07:48.921Z,98149.16
2022-10-22T09:08:53.052Z,98149.97
2022-10-22T09:10:00.008Z,98155.59
2022-10-22T09:11:14.085Z,98152.75
2022-10-22T09:12:21.523Z,98156.22
2022-10-22T09:13:24.844Z,98158.38
2022-10-22T09:14:28.084Z,98155.50
2022-10-22T09:15:31.746Z,98153.22
2022-10-22T09:16:43.389Z,98154.69
2022-10-22T09:18:03.830Z,98150.59
2022-10-22T09:19:18.522Z,98147.13
2022-10-22T09:20:27.045Z,98146.03
2022-10-22T09:21:41.987Z,98142.50
2022-10-22T09:23:18.500Z,98137.94
2022-10-22T09:24:32.239Z,98144.50
2022-10-22T09:25:37.715Z,98137.06
2022-10-22T09:26:41.621Z,98144.34
2022-10-22T09:27:44.684Z,98143.00
2022-10-22T09:28:51.247Z,98148.34
2022-10-22T09:29:54.221Z,98150.50
2022-10-22T09:31:00.356Z,98154.06
2022-10-22T09:32:03.324Z,98148.06
2022-10-22T09:33:23.978Z,98157.69
2022-10-22T09:34:29.535Z,98157.81
2022-10-22T09:35:36.078Z,98163.91
2022-10-22T09:36:39.266Z,98163.22
2022-10-22T09:37:52.069Z,98158.41
2022-10-22T09:38:55.119Z,98156.25
2022-10-22T09:39:59.330Z,98159.09
2022-10-22T09:41:04.247Z,98159.94
2022-10-22T09:42:08.443Z,98157.31
2022-10-22T09:43:15.135Z,98170.53
2022-10-22T09:44:19.520Z,98169.81
2022-10-22T09:45:29.378Z,98170.41
2022-10-22T09:46:44.203Z,98175.81
2022-10-22T09:48:01.595Z,98168.25
2022-10-22T09:49:14.860Z,98166.31
2022-10-22T09:50:23.277Z,98164.37
2022-10-22T09:51:48.380Z,98154.03
2022-10-22T09:53:15.571Z,98150.06
2022-10-22T09:54:33.102Z,98139.31
2022-10-22T09:55:43.382Z,98147.22
2022-10-22T09:56:52.801Z,98148.97
2022-10-22T09:58:00.743Z,98151.16
2022-10-22T09:59:04.538Z,98151.03
2022-10-22T10:00:12.960Z,98151.03
2022-10-22T10:01:22.798Z,98144.28
2022-10-22T10:02:44.436Z,98144.50
2022-10-22T10:03:48.032Z,98141.03
2022-10-22T10:04:57.967Z,98142.56
2022-10-22T10:06:06.246Z,98150.22
2022-10-22T10:07:18.521Z,98150.94
2022-10-22T10:08:22.643Z,98150.94
2022-10-22T10:09:27.374Z,98143.78
2022-10-22T10:10:39.357Z,98142.47
2022-10-22T10:11:49.115Z,98140.50
2022-10-22T10:13:02.979Z,98139.88
2022-10-22T10:14:28.945Z,98143.59
2022-10-22T10:15:47.083Z,98130.06
2022-10-22T10:17:03.309Z,98119.94
2022-10-22T10:18:25.788Z,98127.75
2022-10-22T10:19:47.937Z,98130.59
2022-10-22T10:21:04.606Z,98130.19
2022-10-22T10:22:30.793Z,98135.31
2022-10-22T10:23:36.454Z,98129.91
2022-10-22T10:25:13.426Z,98137.88
2022-10-22T10:26:43.974Z,98132.34
2022-10-22T10:28:18.624Z,98131.94
2022-10-22T10:29:25.606Z,98132.03
2022-10-22T10:30:28.684Z,98141.87
2022-10-22T10:31:43.583Z,98137.69
2022-10-22T10:33:20.061Z,98132.25
2022-10-22T10:34:25.894Z,98138.28
2022-10-22T10:35:43.627Z,98135.03
2022-10-22T10:37:01.743Z,98132.34
2022-10-22T10:38:25.919Z,98130.72
2022-10-22T10:40:25.902Z,98136.34
2022-10-22T10:41:56.351Z,98130.41
2022-10-22T10:43:21.723Z,98124.53
2022-10-22T10:44:49.635Z,98130.69
2022-10-22T10:46:09.697Z,98137.38
2022-10-22T10:47:32.640Z,98139.44
2022-10-22T10:48:54.168Z,98147.03
2022-10-22T10:50:23.508Z,98155.41
2022-10-22T10:51:44.908Z,98157.47
2022-10-22T10:53:17.022Z,98157.47
2022-10-22T10:56:14.752Z,98163.00
2022-10-22T10:57:54.936Z,98156.37
2022-10-22T10:59:07.652Z,98163.84
2022-10-22T11:00:13.483Z,98162.63
2022-10-22T11:01:33.884Z,98169.81
2022-10-22T11:03:27.400Z,98172.03
2022-10-22T11:04:46.187Z,98174.41
2022-10-22T11:05:56.087Z,98166.00
2022-10-22T11:07:11.554Z,98162.81
2022-10-22T11:08:27.101Z,98161.06
2022-10-22T11:09:53.391Z,98161.25
2022-10-22T11:11:14.880Z,98160.84
2022-10-22T11:12:34.209Z,98160.03
2022-10-22T11:13:55.968Z,98163.44
2022-10-22T11:15:15.923Z,98157.16
2022-10-22T11:16:37.632Z,98162.00
2022-10-22T11:17:41.726Z,98159.94
2022-10-22T11:18:53.821Z,98153.56
2022-10-22T11:20:03.910Z,98154.59
2022-10-22T11:21:45.759Z,98155.72
2022-10-22T11:23:18.211Z,98156.22
2022-10-22T11:24:31.266Z,98151.31
2022-10-22T11:25:40.976Z,98142.06
2022-10-22T11:27:05.072Z,98139.81
2022-10-22T11:28:24.122Z,98147.31
2022-10-22T11:29:33.973Z,98136.34
2022-10-22T11:30:38.582Z,98133.47
2022-10-22T11:31:42.304Z,98127.75
2022-10-22T11:32:50.965Z,98123.12
2022-10-22T11:34:33.209Z,98131.31
2022-10-22T11:35:42.971Z,98128.03
2022-10-22T11:36:51.512Z,98131.53
2022-10-22T11:37:57.014Z,98126.22
2022-10-22T11:39:02.827Z,98127.63
2022-10-22T11:40:22.466Z,98127.72
2022-10-22T11:41:32.469Z,98127.13
2022-10-22T11:42:38.584Z,98131.34
2022-10-22T11:44:10.928Z,98133.56
2022-10-22T11:45:13.684Z,98128.25
2022-10-22T11:46:16.530Z,98122.94
2022-10-22T11:47:25.594Z,98125.28
2022-10-22T11:48:37.356Z,98117.69
2022-10-22T11:49:45.565Z,98119.53
2022-10-22T11:51:01.051Z,98119.44
2022-10-22T11:52:28.599Z,98118.81
2022-10-22T11:53:37.873Z,98115.34
2022-10-22T11:54:44.862Z,98116.75
2022-10-22T11:55:57.745Z,98113.38
2022-10-22T11:57:15.309Z,98123.12
2022-10-22T11:58:33.349Z,98112.97
2022-10-22T11:59:47.629Z,98115.22
2022-10-22T12:00:50.546Z,98120.75
2022-10-22T12:01:59.389Z,98116.94
2022-10-22T12:03:16.310Z,98123.19
2022-10-22T12:04:39.747Z,98123.81
2022-10-22T12:05:43.833Z,98117.50
2022-10-22T12:07:02.139Z,98113.69
2022-10-22T12:08:14.830Z,98115.00
2022-10-22T12:09:20.035Z,98106.91
2022-10-22T12:10:27.712Z,98111.84
2022-10-22T12:11:47.999Z,98109.59
2022-10-22T12:13:12.168Z,98109.59
2022-10-22T12:14:28.543Z,98109.59
2022-10-22T12:15:32.009Z,98112.38
2022-10-22T12:16:55.807Z,98101.72
2022-10-22T12:18:02.439Z,98109.19
2022-10-22T12:19:32.360Z,98107.75
2022-10-22T12:20:36.511Z,98107.03
2022-10-22T12:21:42.053Z,98103.56
2022-10-22T12:22:45.140Z,98110.94
2022-10-22T12:23:50.930Z,98099.66
2022-10-22T12:24:58.007Z,98097.28
2022-10-22T12:26:00.767Z,98100.59
2022-10-22T12:27:04.181Z,98094.94
2022-10-22T12:28:12.882Z,98109.59
2022-10-22T12:29:17.579Z,98107.47
2022-10-22T12:30:25.015Z,98104.47
2022-10-22T12:31:35.797Z,98094.63
2022-10-22T12:32:42.768Z,98097.31
2022-10-22T12:33:45.648Z,98093.69
2022-10-22T12:34:53.353Z,98101.19
2022-10-22T12:35:57.955Z,98097.72
2022-10-22T12:37:05.757Z,98099.03
2022-10-22T12:38:21.955Z,98103.97
2022-10-22T12:39:28.219Z,98097.81
2022-10-22T12:40:35.050Z,98101.91
2022-10-22T12:41:39.527Z,98103.34
2022-10-22T12:42:59.099Z,98103.97
2022-10-22T12:44:04.454Z,98102.63
2022-10-22T12:45:07.713Z,98103.25
2022-10-22T12:46:16.641Z,98110.72
2022-10-22T12:47:19.622Z,98111.94
2022-10-22T12:48:25.740Z,98114.09
2022-10-22T12:49:39.396Z,98124.66
2022-10-22T12:50:45.744Z,98127.31
2022-10-22T12:51:49.685Z,98123.00
2022-10-22T12:52:55.915Z,98107.62
2022-10-22T12:54:08.810Z,98112.97
2022-10-22T12:55:19.950Z,98114.91
2022-10-22T12:56:25.686Z,98115.62
2022-10-22T12:57:28.513Z,98122.38
2022-10-22T12:59:02.481Z,98119.63
2022-10-22T13:00:25.144Z,98127.19
2022-10-22T13:01:34.939Z,98127.78
2022-10-22T13:02:37.874Z,98126.37
2022-10-22T13:03:47.745Z,98129.84
2022-10-22T13:05:09.392Z,98124.31
2022-10-22T13:06:24.587Z,98122.16
2022-10-22T13:07:39.889Z,98124.84
2022-10-22T13:08:42.764Z,98116.41
2022-10-22T13:09:56.656Z,98111.50
2022-10-22T13:11:08.756Z,98116.31
2022-10-22T13:12:16.599Z,98117.66
2022-10-22T13:14:01.667Z,98110.66
2022-10-22T13:15:23.267Z,98112.94
2022-10-22T13:16:28.041Z,98113.56
2022-10-22T13:17:42.400Z,98112.84
2022-10-22T13:18:47.010Z,98113.44
2022-10-22T13:19:53.035Z,98121.72
2022-10-22T13:21:02.026Z,98118.25
2022-10-22T13:22:05.242Z,98118.16